Time;durP1;ratioP1;P1;durP2;ratioP2;P2;SDS_P1;SDS_P2;PMS_P1;PMS_P2;Temp;Humidity;BMP_temperature;BMP_pressure;BME280_temperature;BME280_humidity;BME280_pressure;Samples;Min_cycle;Max_cycle;Signal;HPM_P1;HPM_P2
2024/01/07 00:01:11;;;;;;;7.18;4.95;;;;;;;;;;4978924;28;20930;-67
2024/01/07 00:03:36;;;;;;;6.38;4.43;;;;;;;;;;4977850;28;20120;-68
2024/01/07 00:06:02;;;;;;;7.55;4.20;;;;;;;;;;4978529;28;20443;-68
2024/01/07 00:08:27;;;;;;;3.03;2.67;;;;;;;;;;4978777;28;20094;-66
2024/01/07 00:10:53;;;;;;;7.30;4.80;;;;;;;;;;4978508;28;20149;-68
2024/01/07 00:13:18;;;;;;;8.00;5.13;;;;;;;;;;4978767;28;20530;-68
2024/01/07 00:15:44;;;;;;;3.95;3.30;;;;;;;;;;4977058;28;20185;-67
2024/01/07 00:18:09;;;;;;;11.43;5.35;;;;;;;;;;4978463;28;20137;-68
2024/01/07 00:20:34;;;;;;;8.65;5.03;;;;;;;;;;4961213;28;20133;-67
2024/01/07 00:23:01;;;;;;;6.75;4.88;;;;;;;;;;4979130;28;20046;-67
2024/01/07 00:25:26;;;;;;;5.55;4.15;;;;;;;;;;4979578;28;20061;-69
2024/01/07 00:27:55;;;;;;;5.88;4.55;;;;;;;;;;4978228;28;20050;-67
2024/01/07 00:30:20;;;;;;;7.53;4.95;;;;;;;;;;4976755;28;20963;-67
2024/01/07 00:32:46;;;;;;;6.70;4.78;;;;;;;;;;4977489;28;20050;-67
2024/01/07 00:35:11;;;;;;;6.68;4.28;;;;;;;;;;4976970;28;20057;-67
2024/01/07 00:37:37;;;;;;;6.97;4.97;;;;;;;;;;4977998;28;20056;-69
2024/01/07 00:40:04;;;;;;;8.18;3.90;;;;;;;;;;4991959;28;20053;-69
2024/01/07 00:42:30;;;;;;;5.10;3.90;;;;;;;;;;4976610;28;20056;-69
2024/01/07 00:44:56;;;;;;;6.63;4.10;;;;;;;;;;4976664;28;20583;-67
2024/01/07 00:47:21;;;;;;;7.82;5.30;;;;;;;;;;4977151;28;20046;-67
2024/01/07 00:49:47;;;;;;;5.90;4.40;;;;;;;;;;4978338;28;20068;-66
2024/01/07 00:52:12;;;;;;;5.90;4.22;;;;;;;;;;4976374;28;20927;-67
2024/01/07 00:54:38;;;;;;;7.25;4.72;;;;;;;;;;4977392;28;20053;-68
2024/01/07 00:57:04;;;;;;;7.80;5.13;;;;;;;;;;4976537;28;20038;-66
2024/01/07 00:59:29;;;;;;;5.78;3.70;;;;;;;;;;4977020;28;20867;-67
2024/01/07 01:01:55;;;;;;;8.25;4.90;;;;;;;;;;4976294;28;20042;-69
2024/01/07 01:04:22;;;;;;;4.25;3.85;;;;;;;;;;4976360;28;20550;-67
2024/01/07 01:06:47;;;;;;;6.00;4.40;;;;;;;;;;4975704;28;20054;-67
2024/01/07 01:09:13;;;;;;;7.85;4.47;;;;;;;;;;4975618;28;20428;-67
2024/01/07 01:11:38;;;;;;;4.85;3.85;;;;;;;;;;4976113;28;20140;-69
2024/01/07 01:14:04;;;;;;;6.13;3.90;;;;;;;;;;4974572;28;20042;-67
2024/01/07 01:16:30;;;;;;;6.07;4.85;;;;;;;;;;4974596;28;20484;-67
2024/01/07 01:18:55;;;;;;;4.95;3.88;;;;;;;;;;4976372;28;20049;-67
2024/01/07 01:21:21;;;;;;;5.65;4.30;;;;;;;;;;4976004;28;20042;-69
2024/01/07 01:23:46;;;;;;;5.40;3.70;;;;;;;;;;4977818;28;20042;-67
2024/01/07 01:26:12;;;;;;;5.82;4.38;;;;;;;;;;4974762;28;20049;-68
2024/01/07 01:28:37;;;;;;;6.72;5.03;;;;;;;;;;4977874;28;20038;-68
2024/01/07 01:31:03;;;;;;;6.32;4.20;;;;;;;;;;4975080;28;20242;-67
2024/01/07 01:33:28;;;;;;;7.97;5.05;;;;;;;;;;4977120;28;20070;-66
2024/01/07 01:35:54;;;;;;;7.50;4.53;;;;;;;;;;4977011;28;20108;-66
2024/01/07 01:38:19;;;;;;;6.15;4.65;;;;;;;;;;4977598;28;20046;-67
2024/01/07 01:40:52;;;;;;;4.38;3.22;;;;;;;;;;4975992;28;20057;-66
2024/01/07 01:43:28;;;;;;;4.57;3.33;;;;;;;;;;4975551;28;20047;-67
2024/01/07 01:45:54;;;;;;;4.30;3.70;;;;;;;;;;4975927;28;20777;-67
2024/01/07 01:48:20;;;;;;;5.80;3.67;;;;;;;;;;4962846;28;20138;-67
2024/01/07 01:50:47;;;;;;;4.63;3.55;;;;;;;;;;4977711;28;20038;-68
2024/01/07 01:53:13;;;;;;;5.25;3.95;;;;;;;;;;4976262;28;20112;-68
2024/01/07 01:55:38;;;;;;;5.50;3.92;;;;;;;;;;4977081;28;20050;-66
2024/01/07 01:58:04;;;;;;;4.93;3.92;;;;;;;;;;4975380;28;20081;-68
2024/01/07 02:00:30;;;;;;;5.57;4.15;;;;;;;;;;4977858;28;20049;-68
2024/01/07 02:02:56;;;;;;;6.32;3.70;;;;;;;;;;4975405;28;20541;-67
2024/01/07 02:05:22;;;;;;;4.50;3.33;;;;;;;;;;4977461;28;20042;-67
2024/01/07 02:07:48;;;;;;;5.47;3.83;;;;;;;;;;4975284;28;20054;-67
2024/01/07 02:10:13;;;;;;;7.25;3.92;;;;;;;;;;4959385;28;20120;-67
2024/01/07 02:12:39;;;;;;;4.80;3.97;;;;;;;;;;4975950;28;20053;-68
2024/01/07 02:15:05;;;;;;;4.88;3.75;;;;;;;;;;4974516;28;20038;-68
2024/01/07 02:17:31;;;;;;;6.00;3.88;;;;;;;;;;4975748;28;20042;-68
2024/01/07 02:19:56;;;;;;;4.90;3.70;;;;;;;;;;4975197;28;20097;-68
2024/01/07 02:22:22;;;;;;;4.55;3.42;;;;;;;;;;4975457;28;20041;-66
2024/01/07 02:24:47;;;;;;;5.03;3.95;;;;;;;;;;4975438;28;20065;-68
2024/01/07 02:27:12;;;;;;;4.70;3.92;;;;;;;;;;4976658;28;20057;-67
2024/01/07 02:29:38;;;;;;;5.60;3.90;;;;;;;;;;4990430;28;20133;-67
2024/01/07 02:32:04;;;;;;;5.32;3.97;;;;;;;;;;4974784;28;20047;-67
2024/01/07 02:34:29;;;;;;;3.55;3.17;;;;;;;;;;4976165;28;20038;-67
2024/01/07 02:36:55;;;;;;;4.47;3.42;;;;;;;;;;4976133;28;20037;-67
2024/01/07 02:39:20;;;;;;;4.25;3.50;;;;;;;;;;4975263;28;20046;-67
2024/01/07 02:41:46;;;;;;;5.18;3.72;;;;;;;;;;4976938;28;20872;-65
2024/01/07 02:44:12;;;;;;;4.07;3.38;;;;;;;;;;4974904;28;20590;-67
2024/01/07 02:46:37;;;;;;;3.90;3.28;;;;;;;;;;4975332;28;20052;-66
2024/01/07 02:49:02;;;;;;;4.30;3.33;;;;;;;;;;4974771;28;20050;-66
2024/01/07 02:51:28;;;;;;;5.15;3.70;;;;;;;;;;4976171;28;20038;-66
2024/01/07 02:53:53;;;;;;;5.40;3.63;;;;;;;;;;4975138;28;20054;-65
2024/01/07 02:56:18;;;;;;;3.25;2.63;;;;;;;;;;4975312;28;20049;-67
2024/01/07 02:58:44;;;;;;;4.05;3.30;;;;;;;;;;4974984;28;21120;-67
2024/01/07 03:01:10;;;;;;;4.38;3.33;;;;;;;;;;4976528;28;20050;-67
2024/01/07 03:03:35;;;;;;;3.60;3.13;;;;;;;;;;4976690;28;20050;-67
2024/01/07 03:06:01;;;;;;;2.97;2.67;;;;;;;;;;4976423;28;20443;-67
2024/01/07 03:08:27;;;;;;;2.38;2.15;;;;;;;;;;4975136;28;20050;-67
2024/01/07 03:10:53;;;;;;;3.78;3.30;;;;;;;;;;4976548;28;20046;-68
2024/01/07 03:13:19;;;;;;;3.22;2.70;;;;;;;;;;4976295;28;20042;-67
2024/01/07 03:15:44;;;;;;;4.20;3.70;;;;;;;;;;4976035;28;20169;-67
2024/01/07 03:18:09;;;;;;;4.68;3.20;;;;;;;;;;4975939;28;20051;-67
2024/01/07 03:20:35;;;;;;;3.35;3.05;;;;;;;;;;4976258;28;20042;-68
2024/01/07 03:23:00;;;;;;;4.32;3.13;;;;;;;;;;4976736;28;20042;-68
2024/01/07 03:25:26;;;;;;;4.15;3.17;;;;;;;;;;4976123;28;20044;-68
2024/01/07 03:27:51;;;;;;;4.25;3.28;;;;;;;;;;4975811;28;20046;-68
2024/01/07 03:30:17;;;;;;;3.55;2.70;;;;;;;;;;4973803;28;20120;-68
2024/01/07 03:32:42;;;;;;;3.20;2.90;;;;;;;;;;4983295;28;20065;-68
2024/01/07 03:35:10;;;;;;;3.10;2.80;;;;;;;;;;4984410;28;20038;-67
2024/01/07 03:37:36;;;;;;;3.50;2.95;;;;;;;;;;4984771;28;20567;-68
2024/01/07 03:40:01;;;;;;;3.10;2.78;;;;;;;;;;4983023;28;20062;-68
2024/01/07 03:42:27;;;;;;;3.85;3.22;;;;;;;;;;4977313;28;20086;-69
2024/01/07 03:44:52;;;;;;;3.30;2.70;;;;;;;;;;4976288;28;20049;-68
2024/01/07 03:47:17;;;;;;;3.25;2.65;;;;;;;;;;4975547;28;20042;-69
2024/01/07 03:49:43;;;;;;;2.75;2.50;;;;;;;;;;4978994;28;20054;-67
2024/01/07 03:52:08;;;;;;;3.20;2.90;;;;;;;;;;4978151;28;20046;-68
2024/01/07 03:54:34;;;;;;;2.75;2.50;;;;;;;;;;4979965;28;20499;-67
2024/01/07 03:56:59;;;;;;;2.72;2.47;;;;;;;;;;4977890;28;20152;-67
2024/01/07 03:59:26;;;;;;;2.95;2.72;;;;;;;;;;4977610;28;20054;-67
2024/01/07 04:01:57;;;;;;;2.70;2.28;;;;;;;;;;4979067;28;20073;-68
2024/01/07 04:04:22;;;;;;;2.58;2.38;;;;;;;;;;4976979;28;20050;-69
2024/01/07 04:06:48;;;;;;;2.67;2.25;;;;;;;;;;4978067;28;20057;-70
2024/01/07 04:09:13;;;;;;;3.13;2.58;;;;;;;;;;4978550;28;20549;-68
2024/01/07 04:11:42;;;;;;;2.58;2.38;;;;;;;;;;4978944;28;20542;-70
2024/01/07 04:14:09;;;;;;;2.95;2.65;;;;;;;;;;4978483;28;20714;-68
2024/01/07 04:16:34;;;;;;;2.45;2.22;;;;;;;;;;4979166;28;20068;-68
2024/01/07 04:19:00;;;;;;;2.92;2.60;;;;;;;;;;4978827;28;20534;-68
2024/01/07 04:21:25;;;;;;;2.92;2.70;;;;;;;;;;4977472;28;20054;-68
2024/01/07 04:23:51;;;;;;;2.70;2.50;;;;;;;;;;4978121;28;20034;-68
2024/01/07 04:26:16;;;;;;;3.20;2.90;;;;;;;;;;4977943;28;20467;-68
2024/01/07 04:28:42;;;;;;;3.05;2.75;;;;;;;;;;4974172;28;20463;-68
2024/01/07 04:31:08;;;;;;;3.10;2.60;;;;;;;;;;4976199;28;20052;-68
2024/01/07 04:33:33;;;;;;;3.03;2.72;;;;;;;;;;4977601;28;20046;-68
2024/01/07 04:36:00;;;;;;;3.05;2.65;;;;;;;;;;4977650;28;20055;-67
2024/01/07 04:38:26;;;;;;;4.00;2.92;;;;;;;;;;4977542;28;20093;-68
2024/01/07 04:40:52;;;;;;;3.05;2.75;;;;;;;;;;4978681;28;20115;-70
2024/01/07 04:43:20;;;;;;;3.33;2.83;;;;;;;;;;4976554;28;20265;-70
2024/01/07 04:45:46;;;;;;;2.25;2.05;;;;;;;;;;4977389;28;20038;-68
2024/01/07 04:48:13;;;;;;;3.00;2.50;;;;;;;;;;4976794;28;20089;-68
2024/01/07 04:50:41;;;;;;;3.40;3.10;;;;;;;;;;4978848;28;20088;-67
2024/01/07 04:53:07;;;;;;;3.33;2.97;;;;;;;;;;4977512;28;20072;-69
2024/01/07 04:55:33;;;;;;;2.85;2.65;;;;;;;;;;4976882;28;20054;-68
2024/01/07 04:57:58;;;;;;;3.30;2.90;;;;;;;;;;4976859;28;20093;-69
2024/01/07 05:00:24;;;;;;;3.03;2.55;;;;;;;;;;4976293;28;20415;-67
2024/01/07 05:02:49;;;;;;;3.72;3.03;;;;;;;;;;4977846;28;20046;-70
2024/01/07 05:05:14;;;;;;;3.53;3.13;;;;;;;;;;4977066;28;20054;-70
2024/01/07 05:07:40;;;;;;;3.42;2.65;;;;;;;;;;4976721;28;20452;-67
2024/01/07 05:10:06;;;;;;;3.50;2.72;;;;;;;;;;4976362;28;20065;-68
2024/01/07 05:12:31;;;;;;;3.75;2.90;;;;;;;;;;4976788;28;20057;-66
2024/01/07 05:14:57;;;;;;;3.63;3.10;;;;;;;;;;4977718;28;20046;-67
2024/01/07 05:17:22;;;;;;;5.35;3.30;;;;;;;;;;4976405;28;20511;-70
2024/01/07 05:19:47;;;;;;;2.95;2.65;;;;;;;;;;4975901;28;20038;-66
2024/01/07 05:22:13;;;;;;;3.97;3.25;;;;;;;;;;4976089;28;20783;-67
2024/01/07 05:24:38;;;;;;;3.75;3.22;;;;;;;;;;4975464;28;20050;-70
2024/01/07 05:27:05;;;;;;;4.65;3.80;;;;;;;;;;4976919;28;20050;-67
2024/01/07 05:29:31;;;;;;;5.25;3.60;;;;;;;;;;4976082;28;20069;-67
2024/01/07 05:31:57;;;;;;;3.63;3.25;;;;;;;;;;4974591;28;20105;-67
2024/01/07 05:34:23;;;;;;;3.72;3.15;;;;;;;;;;4976711;28;20121;-67
2024/01/07 05:36:48;;;;;;;4.53;3.25;;;;;;;;;;4977760;28;20058;-68
2024/01/07 05:39:13;;;;;;;3.85;3.40;;;;;;;;;;4976445;28;20046;-69
2024/01/07 05:41:39;;;;;;;3.92;3.17;;;;;;;;;;4976979;28;20081;-69
2024/01/07 05:44:06;;;;;;;3.42;3.00;;;;;;;;;;4976700;28;20061;-69
2024/01/07 05:46:32;;;;;;;5.43;3.78;;;;;;;;;;4976898;28;20057;-68
2024/01/07 05:48:57;;;;;;;5.15;3.65;;;;;;;;;;4977076;28;20042;-68
2024/01/07 05:51:22;;;;;;;4.03;3.20;;;;;;;;;;4975999;28;20497;-68
2024/01/07 05:53:48;;;;;;;3.53;3.13;;;;;;;;;;4976049;28;20034;-69
2024/01/07 05:56:13;;;;;;;3.63;3.13;;;;;;;;;;4976394;28;20061;-68
2024/01/07 05:58:39;;;;;;;3.47;3.17;;;;;;;;;;4977179;28;20038;-71
2024/01/07 06:01:05;;;;;;;6.07;4.47;;;;;;;;;;4976308;28;20156;-69
2024/01/07 06:03:31;;;;;;;3.65;2.95;;;;;;;;;;4976759;28;20042;-70
2024/01/07 06:05:58;;;;;;;5.07;3.83;;;;;;;;;;4975511;28;20092;-69
2024/01/07 06:08:23;;;;;;;4.18;3.38;;;;;;;;;;4974761;28;20167;-69
2024/01/07 06:10:48;;;;;;;4.65;3.45;;;;;;;;;;4976947;28;20142;-70
2024/01/07 06:13:14;;;;;;;4.65;3.20;;;;;;;;;;4976327;28;20050;-73
2024/01/07 06:15:39;;;;;;;4.28;3.58;;;;;;;;;;4975668;28;20109;-69
2024/01/07 06:18:05;;;;;;;4.40;3.10;;;;;;;;;;4975383;28;20046;-72
2024/01/07 06:20:30;;;;;;;4.53;3.42;;;;;;;;;;4976228;28;20046;-69
2024/01/07 06:22:55;;;;;;;3.92;3.20;;;;;;;;;;4976833;28;20137;-71
2024/01/07 06:25:21;;;;;;;4.05;3.30;;;;;;;;;;4976496;28;20129;-70
2024/01/07 06:27:46;;;;;;;4.80;3.28;;;;;;;;;;4975308;28;20141;-72
2024/01/07 06:30:12;;;;;;;3.58;3.17;;;;;;;;;;4974027;28;20086;-71
2024/01/07 06:32:37;;;;;;;4.40;3.58;;;;;;;;;;4976292;28;20056;-69
2024/01/07 06:35:04;;;;;;;5.50;3.88;;;;;;;;;;4977309;28;20042;-68
2024/01/07 06:37:30;;;;;;;4.75;3.95;;;;;;;;;;4975178;28;20506;-72
2024/01/07 06:39:58;;;;;;;5.25;4.18;;;;;;;;;;4976556;28;20049;-69
2024/01/07 06:42:23;;;;;;;3.83;2.80;;;;;;;;;;4976427;28;20046;-69
2024/01/07 06:44:49;;;;;;;6.28;3.85;;;;;;;;;;4974822;28;20041;-69
2024/01/07 06:47:15;;;;;;;4.55;3.58;;;;;;;;;;4976729;28;20048;-69
2024/01/07 06:49:41;;;;;;;5.30;3.78;;;;;;;;;;4973705;28;20049;-70
2024/01/07 06:52:06;;;;;;;4.75;3.78;;;;;;;;;;4977107;28;20502;-67
2024/01/07 06:54:31;;;;;;;5.78;4.47;;;;;;;;;;4976364;28;21001;-70
2024/01/07 06:56:57;;;;;;;6.03;4.65;;;;;;;;;;4976068;28;20541;-68
2024/01/07 06:59:22;;;;;;;4.25;3.40;;;;;;;;;;4974947;28;20488;-71
2024/01/07 07:01:48;;;;;;;4.95;3.90;;;;;;;;;;4977611;28;20042;-73
2024/01/07 07:04:13;;;;;;;4.90;3.92;;;;;;;;;;4977421;28;20095;-70
2024/01/07 07:06:38;;;;;;;4.90;3.97;;;;;;;;;;4977325;28;20038;-70
2024/01/07 07:09:04;;;;;;;4.80;4.30;;;;;;;;;;4975734;28;20050;-69
2024/01/07 07:11:29;;;;;;;4.63;3.95;;;;;;;;;;4975077;28;20050;-70
2024/01/07 07:13:55;;;;;;;5.40;4.18;;;;;;;;;;4974034;28;20153;-69
2024/01/07 07:16:20;;;;;;;5.43;4.00;;;;;;;;;;4975659;28;20046;-68
2024/01/07 07:18:46;;;;;;;4.22;3.67;;;;;;;;;;4976252;28;20466;-70
2024/01/07 07:21:11;;;;;;;5.78;4.60;;;;;;;;;;4976348;28;20145;-69
2024/01/07 07:23:36;;;;;;;3.58;3.15;;;;;;;;;;4978056;28;20138;-69
2024/01/07 07:26:02;;;;;;;4.68;3.90;;;;;;;;;;4980083;28;20043;-71
2024/01/07 07:28:27;;;;;;;6.38;4.00;;;;;;;;;;4979521;28;20047;-69
2024/01/07 07:30:53;;;;;;;6.55;3.92;;;;;;;;;;4977703;28;20046;-71
2024/01/07 07:33:18;;;;;;;4.88;4.03;;;;;;;;;;4978148;28;20048;-70
2024/01/07 07:35:44;;;;;;;5.75;4.38;;;;;;;;;;4977564;28;20042;-72
2024/01/07 07:38:09;;;;;;;6.22;4.20;;;;;;;;;;4978895;28;20400;-69
2024/01/07 07:40:34;;;;;;;4.93;3.72;;;;;;;;;;4978996;28;20042;-72
2024/01/07 07:43:00;;;;;;;4.88;3.60;;;;;;;;;;4978597;28;20050;-70
2024/01/07 07:45:25;;;;;;;8.18;3.22;;;;;;;;;;4977680;28;20049;-72
2024/01/07 07:47:51;;;;;;;4.93;3.88;;;;;;;;;;4978191;28;20402;-71
2024/01/07 07:50:16;;;;;;;5.63;3.75;;;;;;;;;;4979287;28;20458;-74
2024/01/07 07:52:43;;;;;;;4.82;3.55;;;;;;;;;;4970594;28;20050;-71
2024/01/07 07:55:09;;;;;;;4.95;3.80;;;;;;;;;;4975600;28;20042;-69
2024/01/07 07:57:35;;;;;;;4.22;3.05;;;;;;;;;;4975266;28;20050;-72
2024/01/07 08:00:01;;;;;;;3.70;3.15;;;;;;;;;;4975591;28;20046;-70
2024/01/07 08:02:26;;;;;;;5.60;3.85;;;;;;;;;;4974519;28;20050;-69
2024/01/07 08:04:52;;;;;;;6.63;4.00;;;;;;;;;;4975924;28;20097;-72
2024/01/07 08:07:17;;;;;;;7.47;5.00;;;;;;;;;;4974822;28;20132;-71
2024/01/07 08:09:43;;;;;;;6.05;4.35;;;;;;;;;;4975208;28;20046;-73
2024/01/07 08:12:08;;;;;;;5.15;4.03;;;;;;;;;;4977611;28;20536;-70
2024/01/07 08:14:34;;;;;;;4.05;3.33;;;;;;;;;;4974980;28;20042;-71
2024/01/07 08:16:59;;;;;;;4.60;3.63;;;;;;;;;;4976388;28;20053;-73
2024/01/07 08:19:25;;;;;;;3.30;3.00;;;;;;;;;;4975560;28;20057;-69
2024/01/07 08:21:50;;;;;;;3.20;2.70;;;;;;;;;;4975842;28;20046;-74
2024/01/07 08:24:15;;;;;;;4.55;3.13;;;;;;;;;;4974934;28;20062;-72
2024/01/07 08:26:41;;;;;;;3.35;2.72;;;;;;;;;;4975038;28;20042;-73
2024/01/07 08:29:06;;;;;;;3.03;2.78;;;;;;;;;;4975658;28;20042;-70
2024/01/07 08:31:32;;;;;;;3.88;3.22;;;;;;;;;;4974054;28;20042;-72
2024/01/07 08:33:58;;;;;;;4.63;3.13;;;;;;;;;;4975492;28;20165;-72
2024/01/07 08:36:23;;;;;;;4.10;3.70;;;;;;;;;;4975073;28;20473;-69
2024/01/07 08:38:49;;;;;;;3.22;2.90;;;;;;;;;;4975739;28;20042;-70
2024/01/07 08:41:18;;;;;;;6.78;3.90;;;;;;;;;;4976624;28;20221;-69
2024/01/07 08:43:44;;;;;;;4.55;3.67;;;;;;;;;;4966879;28;20050;-71
2024/01/07 08:46:13;;;;;;;4.82;3.38;;;;;;;;;;4977098;28;20117;-70
2024/01/07 08:48:39;;;;;;;4.38;3.67;;;;;;;;;;4975929;28;20042;-71
2024/01/07 08:51:05;;;;;;;3.05;2.67;;;;;;;;;;4976453;28;20054;-69
2024/01/07 08:53:36;;;;;;;4.65;3.60;;;;;;;;;;4974955;28;21020;-70
2024/01/07 08:56:02;;;;;;;6.80;3.78;;;;;;;;;;4976322;28;20050;-70
2024/01/07 08:58:27;;;;;;;5.88;3.90;;;;;;;;;;4976373;28;20125;-71
2024/01/07 09:00:53;;;;;;;6.43;4.85;;;;;;;;;;4977014;28;20038;-71
2024/01/07 09:03:18;;;;;;;4.93;4.28;;;;;;;;;;4978538;28;20052;-70
2024/01/07 09:05:43;;;;;;;8.07;5.35;;;;;;;;;;4977475;28;20137;-69
2024/01/07 09:08:11;;;;;;;7.60;4.55;;;;;;;;;;4977884;28;20050;-70
2024/01/07 09:10:36;;;;;;;6.18;4.72;;;;;;;;;;4976373;28;20125;-72
2024/01/07 09:13:03;;;;;;;5.80;3.85;;;;;;;;;;4977164;28;20157;-70
2024/01/07 09:15:28;;;;;;;5.78;4.30;;;;;;;;;;4973536;28;20043;-69
2024/01/07 09:17:54;;;;;;;5.65;4.25;;;;;;;;;;4973006;28;20976;-68
2024/01/07 09:20:19;;;;;;;7.70;4.47;;;;;;;;;;4975891;28;20141;-67
2024/01/07 09:22:45;;;;;;;5.43;4.10;;;;;;;;;;4973243;28;20806;-67
2024/01/07 09:25:11;;;;;;;4.25;3.22;;;;;;;;;;4973436;28;20046;-68
2024/01/07 09:27:39;;;;;;;8.38;5.20;;;;;;;;;;4974778;28;20695;-68
2024/01/07 09:30:05;;;;;;;5.15;3.92;;;;;;;;;;4972195;28;20054;-68
2024/01/07 09:32:31;;;;;;;7.60;5.30;;;;;;;;;;4973200;28;20474;-68
2024/01/07 09:34:57;;;;;;;6.20;4.70;;;;;;;;;;4974224;28;20050;-69
2024/01/07 09:37:23;;;;;;;8.75;5.15;;;;;;;;;;4973669;28;20097;-70
2024/01/07 09:39:49;;;;;;;3.97;3.13;;;;;;;;;;4974090;28;20050;-68
2024/01/07 09:42:18;;;;;;;5.72;4.30;;;;;;;;;;4974108;28;20061;-69
2024/01/07 09:44:44;;;;;;;4.50;3.30;;;;;;;;;;4973010;28;20050;-69
2024/01/07 09:47:14;;;;;;;5.75;3.78;;;;;;;;;;4974371;28;20038;-68
2024/01/07 09:49:41;;;;;;;5.75;3.83;;;;;;;;;;4973645;28;20046;-68
2024/01/07 09:52:08;;;;;;;6.20;3.88;;;;;;;;;;4974288;28;20057;-69
2024/01/07 09:54:39;;;;;;;5.85;4.05;;;;;;;;;;4973921;28;20042;-71
2024/01/07 09:57:06;;;;;;;4.03;3.47;;;;;;;;;;4973526;28;20038;-72
2024/01/07 09:59:32;;;;;;;5.43;4.05;;;;;;;;;;4974640;28;20133;-71
2024/01/07 10:01:58;;;;;;;5.30;3.90;;;;;;;;;;4989466;28;20133;-71
2024/01/07 10:04:24;;;;;;;5.22;3.35;;;;;;;;;;4975933;28;20120;-69
2024/01/07 10:06:50;;;;;;;5.30;3.90;;;;;;;;;;4976328;28;20046;-71
2024/01/07 10:09:17;;;;;;;6.03;3.70;;;;;;;;;;4974598;28;20054;-71
2024/01/07 10:11:43;;;;;;;7.85;4.93;;;;;;;;;;4975502;28;20495;-70
2024/01/07 10:14:09;;;;;;;4.80;3.85;;;;;;;;;;4974317;28;20955;-70
2024/01/07 10:16:38;;;;;;;9.73;5.57;;;;;;;;;;4975196;28;20049;-70
2024/01/07 10:19:03;;;;;;;4.75;3.40;;;;;;;;;;4974593;28;20077;-71
2024/01/07 10:21:29;;;;;;;6.20;4.05;;;;;;;;;;4975863;28;20133;-70
2024/01/07 10:24:11;;;;;;;5.90;4.00;;;;;;;;;;4974247;28;20104;-71
2024/01/07 10:26:43;;;;;;;;;;;;;;;;;;4975315;28;20034;-70
2024/01/07 10:29:08;;;;;;;9.50;5.38;;;;;;;;;;4974277;28;19921;-71
2024/01/07 10:31:38;;;;;;;5.90;4.30;;;;;;;;;;4976290;28;20056;-70
2024/01/07 10:34:07;;;;;;;13.00;6.75;;;;;;;;;;4975715;28;20077;-70
2024/01/07 10:36:32;;;;;;;7.32;4.90;;;;;;;;;;4973230;28;20045;-70
2024/01/07 10:38:58;;;;;;;6.05;4.78;;;;;;;;;;4971674;28;20667;-70
2024/01/07 10:41:25;;;;;;;5.88;3.65;;;;;;;;;;4973532;28;20579;-70
2024/01/07 10:43:50;;;;;;;8.20;5.05;;;;;;;;;;4970706;28;20050;-70
2024/01/07 10:46:16;;;;;;;7.38;4.18;;;;;;;;;;4973254;28;20066;-71
2024/01/07 10:48:55;;;;;;;6.03;4.22;;;;;;;;;;4974798;28;20061;-72
2024/01/07 10:51:21;;;;;;;5.93;4.50;;;;;;;;;;4975276;28;20046;-71
2024/01/07 10:53:53;;;;;;;10.50;4.65;;;;;;;;;;4975454;28;20705;-71
2024/01/07 10:56:23;;;;;;;8.50;6.10;;;;;;;;;;4977393;28;20050;-72
2024/01/07 10:58:51;;;;;;;12.13;5.68;;;;;;;;;;4978787;28;20047;-73
2024/01/07 11:01:18;;;;;;;9.88;5.20;;;;;;;;;;4978775;28;20389;-71
2024/01/07 11:03:46;;;;;;;4.50;3.72;;;;;;;;;;4978359;28;20625;-70
2024/01/07 11:06:23;;;;;;;8.15;4.55;;;;;;;;;;4979159;28;20053;-71
2024/01/07 11:08:55;;;;;;;5.88;4.32;;;;;;;;;;4980178;28;20821;-71
2024/01/07 11:11:38;;;;;;;5.47;3.63;;;;;;;;;;4978717;28;20050;-71
2024/01/07 11:14:03;;;;;;;5.85;4.40;;;;;;;;;;4980299;28;20069;-71
2024/01/07 11:16:42;;;;;;;8.63;5.20;;;;;;;;;;4981953;28;20129;-72
2024/01/07 11:19:08;;;;;;;7.15;4.70;;;;;;;;;;4980859;28;20042;-72
2024/01/07 11:21:33;;;;;;;6.13;4.45;;;;;;;;;;4981857;28;20049;-71
2024/01/07 11:23:59;;;;;;;7.00;4.75;;;;;;;;;;4977258;28;20042;-71
2024/01/07 11:26:29;;;;;;;8.43;5.28;;;;;;;;;;4980357;28;20074;-72
2024/01/07 11:28:58;;;;;;;9.35;5.30;;;;;;;;;;4979260;28;20050;-72
2024/01/07 11:31:39;;;;;;;9.23;6.13;;;;;;;;;;4980276;28;20042;-73
2024/01/07 11:34:04;;;;;;;6.43;4.43;;;;;;;;;;4979101;28;20614;-71
2024/01/07 11:36:31;;;;;;;5.47;4.00;;;;;;;;;;4978408;28;20096;-72
2024/01/07 11:38:57;;;;;;;6.65;4.15;;;;;;;;;;4978241;28;20503;-68
2024/01/07 11:41:25;;;;;;;6.63;4.45;;;;;;;;;;4981084;28;20053;-68
2024/01/07 11:44:02;;;;;;;6.78;4.75;;;;;;;;;;4979886;28;20047;-70
2024/01/07 11:46:29;;;;;;;5.55;3.70;;;;;;;;;;4980588;28;20062;-69
2024/01/07 11:48:59;;;;;;;6.05;3.92;;;;;;;;;;4980988;28;20427;-70
2024/01/07 11:51:26;;;;;;;6.32;4.70;;;;;;;;;;4982167;28;20038;-72
2024/01/07 11:53:52;;;;;;;7.60;4.88;;;;;;;;;;4979615;28;20042;-72
2024/01/07 11:56:18;;;;;;;6.80;4.40;;;;;;;;;;4979986;28;20038;-73
2024/01/07 11:58:44;;;;;;;9.65;6.25;;;;;;;;;;4976505;28;20052;-71
2024/01/07 12:01:09;;;;;;;5.65;3.80;;;;;;;;;;4979423;28;20038;-72
2024/01/07 12:03:35;;;;;;;6.45;4.20;;;;;;;;;;4981275;28;20503;-72
2024/01/07 12:06:00;;;;;;;4.75;3.47;;;;;;;;;;4982202;28;20077;-72
2024/01/07 12:08:26;;;;;;;4.65;3.22;;;;;;;;;;4983134;28;20046;-73
2024/01/07 12:10:51;;;;;;;3.13;2.13;;;;;;;;;;4979053;28;20452;-72
2024/01/07 12:13:17;;;;;;;5.80;2.95;;;;;;;;;;4982114;28;20089;-72
2024/01/07 12:15:46;;;;;;;5.15;4.28;;;;;;;;;;4980078;28;20127;-72
2024/01/07 12:18:11;;;;;;;4.47;3.60;;;;;;;;;;4979741;28;20042;-70
2024/01/07 12:20:36;;;;;;;7.05;4.80;;;;;;;;;;4979539;28;20108;-71
2024/01/07 12:23:08;;;;;;;6.32;4.85;;;;;;;;;;4980101;28;20072;-70
2024/01/07 12:25:34;;;;;;;;;;;;;;;;;;4981786;28;20046;-72
2024/01/07 12:28:00;;;;;;;8.80;4.22;;;;;;;;;;4978399;28;19975;-71
2024/01/07 12:30:25;;;;;;;5.60;4.40;;;;;;;;;;4978969;28;20046;-71
2024/01/07 12:32:52;;;;;;;5.30;4.43;;;;;;;;;;4978408;28;20050;-71
2024/01/07 12:35:17;;;;;;;7.18;5.00;;;;;;;;;;4979200;28;20084;-71
2024/01/07 12:37:44;;;;;;;5.18;4.07;;;;;;;;;;4978590;28;20073;-72
2024/01/07 12:40:10;;;;;;;8.35;5.55;;;;;;;;;;4979441;28;20113;-70
2024/01/07 12:42:44;;;;;;;4.38;3.70;;;;;;;;;;4979586;28;20108;-71
2024/01/07 12:45:13;;;;;;;5.45;4.28;;;;;;;;;;4980516;28;20046;-70
2024/01/07 12:47:39;;;;;;;5.03;4.03;;;;;;;;;;4979999;28;20038;-71
2024/01/07 12:50:04;;;;;;;5.93;4.50;;;;;;;;;;4977949;28;20058;-71
2024/01/07 12:52:30;;;;;;;7.15;4.88;;;;;;;;;;4978059;28;20049;-70
2024/01/07 12:54:56;;;;;;;5.20;4.47;;;;;;;;;;4976828;28;20066;-70
2024/01/07 12:57:22;;;;;;;5.28;3.72;;;;;;;;;;4977513;28;20057;-71
2024/01/07 12:59:48;;;;;;;6.53;4.93;;;;;;;;;;4977735;28;20042;-70
2024/01/07 13:02:13;;;;;;;4.65;3.72;;;;;;;;;;4978361;28;20047;-70
2024/01/07 13:04:39;;;;;;;5.05;4.15;;;;;;;;;;4979409;28;20072;-71
2024/01/07 13:07:04;;;;;;;6.40;4.80;;;;;;;;;;4979966;28;20467;-71
2024/01/07 13:09:29;;;;;;;7.38;4.38;;;;;;;;;;4979899;28;20042;-70
2024/01/07 13:11:55;;;;;;;7.03;4.93;;;;;;;;;;4978979;28;20046;-71
2024/01/07 13:14:20;;;;;;;9.45;5.82;;;;;;;;;;4979557;28;20599;-70
2024/01/07 13:16:46;;;;;;;5.07;4.30;;;;;;;;;;4979311;28;20042;-71
2024/01/07 13:19:11;;;;;;;6.38;4.35;;;;;;;;;;4974889;28;20061;-71
2024/01/07 13:21:38;;;;;;;7.68;4.82;;;;;;;;;;4976772;28;20065;-70
2024/01/07 13:24:04;;;;;;;7.28;4.93;;;;;;;;;;4978326;28;20050;-71
2024/01/07 13:26:31;;;;;;;9.55;6.18;;;;;;;;;;4978359;28;20682;-71
2024/01/07 13:28:56;;;;;;;6.07;4.30;;;;;;;;;;4978262;28;20133;-71
2024/01/07 13:31:21;;;;;;;9.55;5.55;;;;;;;;;;4978760;28;20034;-71
2024/01/07 13:33:47;;;;;;;13.63;6.35;;;;;;;;;;4977579;28;20447;-71
2024/01/07 13:36:13;;;;;;;7.80;5.00;;;;;;;;;;4978077;28;20050;-71
2024/01/07 13:38:41;;;;;;;5.93;4.30;;;;;;;;;;4979478;28;20522;-71
2024/01/07 13:41:10;;;;;;;5.00;3.33;;;;;;;;;;4979019;28;20124;-71
2024/01/07 13:43:37;;;;;;;8.27;5.32;;;;;;;;;;4979307;28;20050;-71
2024/01/07 13:46:02;;;;;;;6.88;4.45;;;;;;;;;;4978438;28;20200;-71
2024/01/07 13:48:29;;;;;;;7.70;4.40;;;;;;;;;;4978262;28;20507;-71
2024/01/07 13:50:55;;;;;;;4.75;3.70;;;;;;;;;;4977895;28;20129;-70
2024/01/07 13:53:20;;;;;;;4.32;3.45;;;;;;;;;;4980232;28;20145;-70
2024/01/07 13:55:46;;;;;;;4.63;3.17;;;;;;;;;;4977963;28;20050;-71
2024/01/07 13:58:12;;;;;;;5.95;4.07;;;;;;;;;;4975534;28;20153;-70
2024/01/07 14:00:37;;;;;;;6.13;4.57;;;;;;;;;;4977189;28;20070;-70
2024/01/07 14:03:03;;;;;;;6.88;4.72;;;;;;;;;;4975958;28;20522;-70
2024/01/07 14:05:29;;;;;;;4.80;4.03;;;;;;;;;;4975248;28;20052;-69
2024/01/07 14:07:54;;;;;;;5.97;4.45;;;;;;;;;;4975799;28;20042;-70
2024/01/07 14:10:20;;;;;;;3.58;3.25;;;;;;;;;;4977983;28;20085;-71
2024/01/07 14:12:45;;;;;;;5.50;4.32;;;;;;;;;;4976866;28;20046;-70
2024/01/07 14:15:11;;;;;;;4.25;3.85;;;;;;;;;;4977166;28;20045;-70
2024/01/07 14:17:36;;;;;;;5.65;3.65;;;;;;;;;;4975610;28;20050;-70
2024/01/07 14:20:03;;;;;;;7.45;5.30;;;;;;;;;;4974247;28;20070;-69
2024/01/07 14:22:29;;;;;;;8.73;6.60;;;;;;;;;;4975184;28;20042;-69
2024/01/07 14:24:54;;;;;;;6.93;5.25;;;;;;;;;;4976141;28;20509;-69
2024/01/07 14:27:20;;;;;;;5.32;4.43;;;;;;;;;;4975686;28;20050;-69
2024/01/07 14:29:45;;;;;;;7.65;4.38;;;;;;;;;;4976635;28;20566;-72
2024/01/07 14:32:11;;;;;;;6.60;4.38;;;;;;;;;;4975803;28;20052;-70
2024/01/07 14:34:48;;;;;;;7.07;3.92;;;;;;;;;;4978392;28;20061;-69
2024/01/07 14:37:14;;;;;;;5.18;4.07;;;;;;;;;;4977404;28;20047;-70